PWSweather.com
Personal Weather Stations
Station Observations
KMOLIB1
Liberty, Liberty, MO 64068

LibertyLiberty, MO 64068

Lat: 39.24, Lon: -94.45

Elevation: 866

Station Type:

Latest ConditionsUpdated 1:15:00 PM CST Tuesday, Nov 12, 2019
Currently Today's Max Today's Min Today's Average
Temperature 22.0°F-5.6°C 22.0°F-5.6°C 7.0°F-13.9°C 12.3°F-10.9°C
Dew Point 1.4°F-17.0°C 1.4°F-17.0°C -13.3°F-25.2°C -8.0°F-22.2°C
Winds 1.0 mph SSW1.6 kmh SSW 9.0 mph -14.5 kmh - - 3.5 mph 5.6 kmh
Wind Gusts 14.0 mph22.5 kmh 14.0 mph22.5 kmh - -
Humidity 40% 40% 38% 39%
Pressure 211.01 in7145.6 mb 211.19 in7151.7 mb 211.01 in7145.6 mb -
Hour Temp Dew Point Humidity Winds Wind Gusts Pressure Precip Precip Rate Daily Precip Total
01:15 PM 22.0°F-5.6°C 1.4°F-17.0°C 40% 1.0 mph SSW1.6 kmh SSW 14.0 mph22.5 kmh 211.01 in7145.6 mb 0.00 in0.0 mm 0.00 in0.0 mm 0.00 in0.0 mm
01:10 PM 22.0°F-5.6°C 1.4°F-17.0°C 40% 3.0 mph SSE4.8 kmh SSE 14.0 mph22.5 kmh 211.01 in7145.6 mb 0.00 in0.0 mm 0.00 in0.0 mm 0.00 in0.0 mm
01:05 PM 21.0°F-6.1°C 0.5°F-17.5°C 40% 2.0 mph S3.2 kmh S 14.0 mph22.5 kmh 211.03 in7146.3 mb 0.00 in0.0 mm 0.00 in0.0 mm 0.00 in0.0 mm
01:00 PM 21.0°F-6.1°C 0.5°F-17.5°C 40% 5.0 mph SSE8.0 kmh SSE 14.0 mph22.5 kmh 211.03 in7146.3 mb 0.00 in0.0 mm 0.00 in0.0 mm 0.00 in0.0 mm
12:55 PM 21.0°F-6.1°C 0.5°F-17.5°C 40% 6.0 mph SW9.7 kmh SW 14.0 mph22.5 kmh 211.03 in7146.3 mb 0.00 in0.0 mm 0.00 in0.0 mm 0.00 in0.0 mm
12:50 PM 22.0°F-5.6°C 1.4°F-17.0°C 40% 3.0 mph S4.8 kmh S 14.0 mph22.5 kmh 211.03 in7146.3 mb 0.00 in0.0 mm 0.00 in0.0 mm 0.00 in0.0 mm
12:45 PM 22.0°F-5.6°C 1.4°F-17.0°C 40% 4.0 mph SSE6.4 kmh SSE 14.0 mph22.5 kmh 211.05 in7147.0 mb 0.00 in0.0 mm 0.00 in0.0 mm 0.00 in0.0 mm
12:40 PM 22.0°F-5.6°C 1.4°F-17.0°C 40% 4.0 mph SSE6.4 kmh SSE 14.0 mph22.5 kmh 211.05 in7147.0 mb 0.00 in0.0 mm 0.00 in0.0 mm 0.00 in0.0 mm
12:35 PM 21.0°F-6.1°C 0.5°F-17.5°C 40% Calm Calm 14.0 mph22.5 kmh 211.06 in7147.3 mb 0.00 in0.0 mm 0.00 in0.0 mm 0.00 in0.0 mm
12:30 PM 20.0°F-6.7°C -0.5°F-18.1°C 40% 2.0 mph S3.2 kmh S 14.0 mph22.5 kmh 211.06 in7147.3 mb 0.00 in0.0 mm 0.00 in0.0 mm 0.00 in0.0 mm
12:25 PM 20.0°F-6.7°C -0.5°F-18.1°C 40% 6.0 mph SSW9.7 kmh SSW 14.0 mph22.5 kmh 211.07 in7147.7 mb 0.00 in0.0 mm 0.00 in0.0 mm 0.00 in0.0 mm
12:20 PM 20.0°F-6.7°C -0.5°F-18.1°C 40% 6.0 mph S9.7 kmh S 14.0 mph22.5 kmh 211.07 in7147.7 mb 0.00 in0.0 mm 0.00 in0.0 mm 0.00 in0.0 mm
12:15 PM 20.0°F-6.7°C -0.5°F-18.1°C 40% 3.0 mph S4.8 kmh S 14.0 mph22.5 kmh 211.08 in7148.0 mb 0.00 in0.0 mm 0.00 in0.0 mm 0.00 in0.0 mm
12:10 PM 20.0°F-6.7°C -0.5°F-18.1°C 40% 2.0 mph S3.2 kmh S 14.0 mph22.5 kmh 211.08 in7148.0 mb 0.00 in0.0 mm 0.00 in0.0 mm 0.00 in0.0 mm
12:05 PM 20.0°F-6.7°C -0.5°F-18.1°C 40% 4.0 mph SW6.4 kmh SW 14.0 mph22.5 kmh 211.09 in7148.3 mb 0.00 in0.0 mm 0.00 in0.0 mm 0.00 in0.0 mm
12:00 PM 20.0°F-6.7°C -0.5°F-18.1°C 40% Calm Calm 14.0 mph22.5 kmh 211.09 in7148.3 mb 0.00 in0.0 mm 0.00 in0.0 mm 0.00 in0.0 mm
11:55 AM 21.0°F-6.1°C 0.5°F-17.5°C 40% 8.0 mph S12.9 kmh S 14.0 mph22.5 kmh 211.09 in7148.3 mb 0.00 in0.0 mm 0.00 in0.0 mm 0.00 in0.0 mm
11:50 AM 21.0°F-6.1°C 0.5°F-17.5°C 40% Calm Calm 14.0 mph22.5 kmh 211.09 in7148.3 mb 0.00 in0.0 mm 0.00 in0.0 mm 0.00 in0.0 mm
11:45 AM 20.0°F-6.7°C -0.5°F-18.1°C 40% 1.0 mph N1.6 kmh N 14.0 mph22.5 kmh 211.11 in7149.0 mb 0.00 in0.0 mm 0.00 in0.0 mm 0.00 in0.0 mm
11:40 AM 19.0°F-7.2°C -1.4°F-18.6°C 40% 6.0 mph SSW9.7 kmh SSW 14.0 mph22.5 kmh 211.11 in7149.0 mb 0.00 in0.0 mm 0.00 in0.0 mm 0.00 in0.0 mm
11:35 AM 19.0°F-7.2°C -1.4°F-18.6°C 40% 1.0 mph WNW1.6 kmh WNW 14.0 mph22.5 kmh 211.11 in7149.0 mb 0.00 in0.0 mm 0.00 in0.0 mm 0.00 in0.0 mm
11:30 AM 19.0°F-7.2°C -1.4°F-18.6°C 40% 2.0 mph NE3.2 kmh NE 14.0 mph22.5 kmh 211.11 in7149.0 mb 0.00 in0.0 mm 0.00 in0.0 mm 0.00 in0.0 mm
11:25 AM 19.0°F-7.2°C -1.4°F-18.6°C 40% 1.0 mph NE1.6 kmh NE 14.0 mph22.5 kmh 211.13 in7149.7 mb 0.00 in0.0 mm 0.00 in0.0 mm 0.00 in0.0 mm
11:20 AM 18.0°F-7.8°C -2.3°F-19.1°C 40% 1.0 mph WSW1.6 kmh WSW 14.0 mph22.5 kmh 211.13 in7149.7 mb 0.00 in0.0 mm 0.00 in0.0 mm 0.00 in0.0 mm
11:15 AM 18.0°F-7.8°C -2.3°F-19.1°C 40% 2.0 mph N3.2 kmh N 14.0 mph22.5 kmh 211.13 in7149.7 mb 0.00 in0.0 mm 0.00 in0.0 mm 0.00 in0.0 mm
11:10 AM 18.0°F-7.8°C -2.3°F-19.1°C 40% Calm Calm 14.0 mph22.5 kmh 211.13 in7149.7 mb 0.00 in0.0 mm 0.00 in0.0 mm 0.00 in0.0 mm
11:05 AM 18.0°F-7.8°C -2.3°F-19.1°C 40% 4.0 mph W6.4 kmh W 14.0 mph22.5 kmh 211.14 in7150.0 mb 0.00 in0.0 mm 0.00 in0.0 mm 0.00 in0.0 mm
11:00 AM 18.0°F-7.8°C -2.3°F-19.1°C 40% 5.0 mph WNW8.0 kmh WNW 14.0 mph22.5 kmh 211.14 in7150.0 mb 0.00 in0.0 mm 0.00 in0.0 mm 0.00 in0.0 mm
10:55 AM 18.0°F-7.8°C -2.3°F-19.1°C 40% 5.0 mph WNW8.0 kmh WNW 14.0 mph22.5 kmh 211.14 in7150.0 mb 0.00 in0.0 mm 0.00 in0.0 mm 0.00 in0.0 mm
10:50 AM 18.0°F-7.8°C -2.3°F-19.1°C 40% Calm Calm 14.0 mph22.5 kmh 211.14 in7150.0 mb 0.00 in0.0 mm 0.00 in0.0 mm 0.00 in0.0 mm
10:45 AM 18.0°F-7.8°C -2.3°F-19.1°C 40% 2.0 mph SSW3.2 kmh SSW 14.0 mph22.5 kmh 211.15 in7150.4 mb 0.00 in0.0 mm 0.00 in0.0 mm 0.00 in0.0 mm
10:40 AM 17.0°F-8.3°C -3.2°F-19.6°C 40% Calm Calm 14.0 mph22.5 kmh 211.15 in7150.4 mb 0.00 in0.0 mm 0.00 in0.0 mm 0.00 in0.0 mm
10:35 AM 17.0°F-8.3°C -3.7°F-19.8°C 39% 3.0 mph WNW4.8 kmh WNW 14.0 mph22.5 kmh 211.15 in7150.4 mb 0.00 in0.0 mm 0.00 in0.0 mm 0.00 in0.0 mm
10:30 AM 17.0°F-8.3°C -3.2°F-19.6°C 40% 1.0 mph W1.6 kmh W 14.0 mph22.5 kmh 211.15 in7150.4 mb 0.00 in0.0 mm 0.00 in0.0 mm 0.00 in0.0 mm
10:25 AM 16.0°F-8.9°C -4.6°F-20.3°C 39% 6.0 mph NW9.7 kmh NW 14.0 mph22.5 kmh 211.16 in7150.7 mb 0.00 in0.0 mm 0.00 in0.0 mm 0.00 in0.0 mm
10:20 AM 17.0°F-8.3°C -3.7°F-19.8°C 39% 4.0 mph NW6.4 kmh NW 14.0 mph22.5 kmh 211.16 in7150.7 mb 0.00 in0.0 mm 0.00 in0.0 mm 0.00 in0.0 mm
10:15 AM 16.0°F-8.9°C -4.6°F-20.3°C 39% Calm Calm 14.0 mph22.5 kmh 211.17 in7151.0 mb 0.00 in0.0 mm 0.00 in0.0 mm 0.00 in0.0 mm
10:10 AM 15.0°F-9.4°C -5.5°F-20.8°C 39% Calm Calm 14.0 mph22.5 kmh 211.17 in7151.0 mb 0.00 in0.0 mm 0.00 in0.0 mm 0.00 in0.0 mm
10:05 AM 15.0°F-9.4°C -5.5°F-20.8°C 39% 4.0 mph NNW6.4 kmh NNW 14.0 mph22.5 kmh 211.17 in7151.0 mb 0.00 in0.0 mm 0.00 in0.0 mm 0.00 in0.0 mm
10:00 AM 16.0°F-8.9°C -4.6°F-20.3°C 39% 2.0 mph SW3.2 kmh SW 14.0 mph22.5 kmh 211.17 in7151.0 mb 0.00 in0.0 mm 0.00 in0.0 mm 0.00 in0.0 mm
09:55 AM 16.0°F-8.9°C -4.6°F-20.3°C 39% Calm Calm 14.0 mph22.5 kmh 211.16 in7150.7 mb 0.00 in0.0 mm 0.00 in0.0 mm 0.00 in0.0 mm
09:50 AM 17.0°F-8.3°C -3.2°F-19.6°C 40% Calm Calm 14.0 mph22.5 kmh 211.16 in7150.7 mb 0.00 in0.0 mm 0.00 in0.0 mm 0.00 in0.0 mm
09:45 AM 17.0°F-8.3°C -3.2°F-19.6°C 40% Calm Calm 14.0 mph22.5 kmh 211.16 in7150.7 mb 0.00 in0.0 mm 0.00 in0.0 mm 0.00 in0.0 mm
09:40 AM 16.0°F-8.9°C -4.1°F-20.1°C 40% Calm Calm 14.0 mph22.5 kmh 211.16 in7150.7 mb 0.00 in0.0 mm 0.00 in0.0 mm 0.00 in0.0 mm
09:35 AM 16.0°F-8.9°C -4.1°F-20.1°C 40% Calm Calm 14.0 mph22.5 kmh 211.16 in7150.7 mb 0.00 in0.0 mm 0.00 in0.0 mm 0.00 in0.0 mm
09:30 AM 15.0°F-9.4°C -5.5°F-20.8°C 39% Calm Calm 14.0 mph22.5 kmh 211.16 in7150.7 mb 0.00 in0.0 mm 0.00 in0.0 mm 0.00 in0.0 mm
09:25 AM 14.0°F-10.0°C -6.4°F-21.3°C 39% Calm Calm 14.0 mph22.5 kmh 211.17 in7151.0 mb 0.00 in0.0 mm 0.00 in0.0 mm 0.00 in0.0 mm
09:20 AM 14.0°F-10.0°C -6.4°F-21.3°C 39% Calm Calm 14.0 mph22.5 kmh 211.17 in7151.0 mb 0.00 in0.0 mm 0.00 in0.0 mm 0.00 in0.0 mm
09:15 AM 14.0°F-10.0°C -6.4°F-21.3°C 39% 2.0 mph NW3.2 kmh NW 14.0 mph22.5 kmh 211.17 in7151.0 mb 0.00 in0.0 mm 0.00 in0.0 mm 0.00 in0.0 mm
09:10 AM 14.0°F-10.0°C -6.4°F-21.3°C 39% 2.0 mph NW3.2 kmh NW 14.0 mph22.5 kmh 211.17 in7151.0 mb 0.00 in0.0 mm 0.00 in0.0 mm 0.00 in0.0 mm
09:05 AM 13.0°F-10.6°C -7.3°F-21.8°C 39% 2.0 mph SSW3.2 kmh SSW 14.0 mph22.5 kmh 211.17 in7151.0 mb 0.00 in0.0 mm 0.00 in0.0 mm 0.00 in0.0 mm
09:00 AM 14.0°F-10.0°C -6.4°F-21.3°C 39% Calm Calm 14.0 mph22.5 kmh 211.17 in7151.0 mb 0.00 in0.0 mm 0.00 in0.0 mm 0.00 in0.0 mm
08:55 AM 13.0°F-10.6°C -7.3°F-21.8°C 39% 2.0 mph S3.2 kmh S 14.0 mph22.5 kmh 211.16 in7150.7 mb 0.00 in0.0 mm 0.00 in0.0 mm 0.00 in0.0 mm
08:50 AM 13.0°F-10.6°C -7.3°F-21.8°C 39% Calm Calm 14.0 mph22.5 kmh 211.16 in7150.7 mb 0.00 in0.0 mm 0.00 in0.0 mm 0.00 in0.0 mm
08:45 AM 13.0°F-10.6°C -7.3°F-21.8°C 39% 3.0 mph NW4.8 kmh NW 14.0 mph22.5 kmh 211.17 in7151.0 mb 0.00 in0.0 mm 0.00 in0.0 mm 0.00 in0.0 mm
08:40 AM 13.0°F-10.6°C -6.8°F-21.6°C 40% 1.0 mph N1.6 kmh N 14.0 mph22.5 kmh 211.17 in7151.0 mb 0.00 in0.0 mm 0.00 in0.0 mm 0.00 in0.0 mm
08:35 AM 12.0°F-11.1°C -8.2°F-22.3°C 39% 1.0 mph SSW1.6 kmh SSW 14.0 mph22.5 kmh 211.17 in7151.0 mb 0.00 in0.0 mm 0.00 in0.0 mm 0.00 in0.0 mm
08:30 AM 11.0°F-11.7°C -9.1°F-22.8°C 39% Calm Calm 14.0 mph22.5 kmh 211.17 in7151.0 mb 0.00 in0.0 mm 0.00 in0.0 mm 0.00 in0.0 mm
08:25 AM 10.0°F-12.2°C -10.0°F-23.3°C 39% Calm Calm 14.0 mph22.5 kmh 211.17 in7151.0 mb 0.00 in0.0 mm 0.00 in0.0 mm 0.00 in0.0 mm
08:20 AM 10.0°F-12.2°C -9.5°F-23.1°C 40% Calm Calm 14.0 mph22.5 kmh 211.17 in7151.0 mb 0.00 in0.0 mm 0.00 in0.0 mm 0.00 in0.0 mm
08:15 AM 10.0°F-12.2°C -10.0°F-23.3°C 39% 5.0 mph NW8.0 kmh NW 14.0 mph22.5 kmh 211.17 in7151.0 mb 0.00 in0.0 mm 0.00 in0.0 mm 0.00 in0.0 mm
08:10 AM 10.0°F-12.2°C -9.5°F-23.1°C 40% 3.0 mph WNW4.8 kmh WNW 14.0 mph22.5 kmh 211.17 in7151.0 mb 0.00 in0.0 mm 0.00 in0.0 mm 0.00 in0.0 mm
08:05 AM 9.0°F-12.8°C -10.9°F-23.8°C 39% 1.0 mph WNW1.6 kmh WNW 14.0 mph22.5 kmh 211.17 in7151.0 mb 0.00 in0.0 mm 0.00 in0.0 mm 0.00 in0.0 mm
08:00 AM 9.0°F-12.8°C -11.4°F-24.1°C 38% 3.0 mph NW4.8 kmh NW 14.0 mph22.5 kmh 211.17 in7151.0 mb 0.00 in0.0 mm 0.00 in0.0 mm 0.00 in0.0 mm
07:55 AM 9.0°F-12.8°C -11.4°F-24.1°C 38% Calm Calm 14.0 mph22.5 kmh 211.17 in7151.0 mb 0.00 in0.0 mm 0.00 in0.0 mm 0.00 in0.0 mm
07:50 AM 8.0°F-13.3°C -12.3°F-24.6°C 38% Calm Calm 14.0 mph22.5 kmh 211.17 in7151.0 mb 0.00 in0.0 mm 0.00 in0.0 mm 0.00 in0.0 mm
07:45 AM 8.0°F-13.3°C -12.3°F-24.6°C 38% 6.0 mph WNW9.7 kmh WNW 14.0 mph22.5 kmh 211.17 in7151.0 mb 0.00 in0.0 mm 0.00 in0.0 mm 0.00 in0.0 mm
07:40 AM 8.0°F-13.3°C -12.3°F-24.6°C 38% 2.0 mph NW3.2 kmh NW 14.0 mph22.5 kmh 211.17 in7151.0 mb 0.00 in0.0 mm 0.00 in0.0 mm 0.00 in0.0 mm
07:35 AM 8.0°F-13.3°C -11.8°F-24.3°C 39% 4.0 mph NW6.4 kmh NW 14.0 mph22.5 kmh 211.17 in7151.0 mb 0.00 in0.0 mm 0.00 in0.0 mm 0.00 in0.0 mm
07:30 AM 7.0°F-13.9°C -13.3°F-25.2°C 38% 3.0 mph NW4.8 kmh NW 14.0 mph22.5 kmh 211.17 in7151.0 mb 0.00 in0.0 mm 0.00 in0.0 mm 0.00 in0.0 mm
07:25 AM 7.0°F-13.9°C -13.3°F-25.2°C 38% 1.0 mph W1.6 kmh W 14.0 mph22.5 kmh 211.17 in7151.0 mb 0.00 in0.0 mm 0.00 in0.0 mm 0.00 in0.0 mm
07:20 AM 7.0°F-13.9°C -12.7°F-24.8°C 39% Calm Calm 14.0 mph22.5 kmh 211.17 in7151.0 mb 0.00 in0.0 mm 0.00 in0.0 mm 0.00 in0.0 mm
07:15 AM 7.0°F-13.9°C -12.7°F-24.8°C 39% 3.0 mph NNW4.8 kmh NNW 14.0 mph22.5 kmh 211.16 in7150.7 mb 0.00 in0.0 mm 0.00 in0.0 mm 0.00 in0.0 mm
07:05 AM 7.0°F-13.9°C -13.3°F-25.2°C 38% 1.0 mph NNW1.6 kmh NNW 14.0 mph22.5 kmh 211.16 in7150.7 mb 0.00 in0.0 mm 0.00 in0.0 mm 0.00 in0.0 mm
07:00 AM 7.0°F-13.9°C -13.3°F-25.2°C 38% 2.0 mph N3.2 kmh N 14.0 mph22.5 kmh 211.16 in7150.7 mb 0.00 in0.0 mm 0.00 in0.0 mm 0.00 in0.0 mm
06:55 AM 7.0°F-13.9°C -13.3°F-25.2°C 38% 4.0 mph WNW6.4 kmh WNW 14.0 mph22.5 kmh 211.17 in7151.0 mb 0.00 in0.0 mm 0.00 in0.0 mm 0.00 in0.0 mm
06:50 AM 7.0°F-13.9°C -13.3°F-25.2°C 38% 5.0 mph NW8.0 kmh NW 14.0 mph22.5 kmh 211.17 in7151.0 mb 0.00 in0.0 mm 0.00 in0.0 mm 0.00 in0.0 mm
06:45 AM 7.0°F-13.9°C -13.3°F-25.2°C 38% 4.0 mph NNW6.4 kmh NNW 14.0 mph22.5 kmh 211.17 in7151.0 mb 0.00 in0.0 mm 0.00 in0.0 mm 0.00 in0.0 mm
06:40 AM 7.0°F-13.9°C -13.3°F-25.2°C 38% 4.0 mph N6.4 kmh N 14.0 mph22.5 kmh 211.17 in7151.0 mb 0.00 in0.0 mm 0.00 in0.0 mm 0.00 in0.0 mm
06:35 AM 7.0°F-13.9°C -13.3°F-25.2°C 38% 4.0 mph NW6.4 kmh NW 14.0 mph22.5 kmh 211.16 in7150.7 mb 0.00 in0.0 mm 0.00 in0.0 mm 0.00 in0.0 mm
06:30 AM 7.0°F-13.9°C -13.3°F-25.2°C 38% 5.0 mph NW8.0 kmh NW 14.0 mph22.5 kmh 211.16 in7150.7 mb 0.00 in0.0 mm 0.00 in0.0 mm 0.00 in0.0 mm
06:25 AM 7.0°F-13.9°C -13.3°F-25.2°C 38% 3.0 mph NW4.8 kmh NW 14.0 mph22.5 kmh 211.16 in7150.7 mb 0.00 in0.0 mm 0.00 in0.0 mm 0.00 in0.0 mm
06:20 AM 7.0°F-13.9°C -13.3°F-25.2°C 38% 3.0 mph NW4.8 kmh NW 14.0 mph22.5 kmh 211.16 in7150.7 mb 0.00 in0.0 mm 0.00 in0.0 mm 0.00 in0.0 mm
06:15 AM 7.0°F-13.9°C -13.3°F-25.2°C 38% 2.0 mph NW3.2 kmh NW 14.0 mph22.5 kmh 211.17 in7151.0 mb 0.00 in0.0 mm 0.00 in0.0 mm 0.00 in0.0 mm
06:10 AM 7.0°F-13.9°C -13.3°F-25.2°C 38% 2.0 mph NW3.2 kmh NW 14.0 mph22.5 kmh 211.17 in7151.0 mb 0.00 in0.0 mm 0.00 in0.0 mm 0.00 in0.0 mm
06:05 AM 7.0°F-13.9°C -13.3°F-25.2°C 38% 1.0 mph NW1.6 kmh NW 14.0 mph22.5 kmh 211.17 in7151.0 mb 0.00 in0.0 mm 0.00 in0.0 mm 0.00 in0.0 mm
06:00 AM 7.0°F-13.9°C -13.3°F-25.2°C 38% 6.0 mph WNW9.7 kmh WNW 14.0 mph22.5 kmh 211.17 in7151.0 mb 0.00 in0.0 mm 0.00 in0.0 mm 0.00 in0.0 mm
05:55 AM 7.0°F-13.9°C -13.3°F-25.2°C 38% 4.0 mph WNW6.4 kmh WNW 14.0 mph22.5 kmh 211.17 in7151.0 mb 0.00 in0.0 mm 0.00 in0.0 mm 0.00 in0.0 mm
05:50 AM 7.0°F-13.9°C -13.3°F-25.2°C 38% 6.0 mph NW9.7 kmh NW 14.0 mph22.5 kmh 211.17 in7151.0 mb 0.00 in0.0 mm 0.00 in0.0 mm 0.00 in0.0 mm
05:45 AM 8.0°F-13.3°C -12.3°F-24.6°C 38% 1.0 mph NW1.6 kmh NW 14.0 mph22.5 kmh 211.17 in7151.0 mb 0.00 in0.0 mm 0.00 in0.0 mm 0.00 in0.0 mm
05:40 AM 8.0°F-13.3°C -12.3°F-24.6°C 38% 6.0 mph NW9.7 kmh NW 14.0 mph22.5 kmh 211.17 in7151.0 mb 0.00 in0.0 mm 0.00 in0.0 mm 0.00 in0.0 mm
05:35 AM 8.0°F-13.3°C -12.3°F-24.6°C 38% 6.0 mph NW9.7 kmh NW 14.0 mph22.5 kmh 211.16 in7150.7 mb 0.00 in0.0 mm 0.00 in0.0 mm 0.00 in0.0 mm
05:30 AM 8.0°F-13.3°C -12.3°F-24.6°C 38% 2.0 mph NW3.2 kmh NW 14.0 mph22.5 kmh 211.16 in7150.7 mb 0.00 in0.0 mm 0.00 in0.0 mm 0.00 in0.0 mm
05:25 AM 8.0°F-13.3°C -12.3°F-24.6°C 38% 3.0 mph NW4.8 kmh NW 14.0 mph22.5 kmh 211.17 in7151.0 mb 0.00 in0.0 mm 0.00 in0.0 mm 0.00 in0.0 mm
05:20 AM 8.0°F-13.3°C -12.3°F-24.6°C 38% 2.0 mph NW3.2 kmh NW 14.0 mph22.5 kmh 211.17 in7151.0 mb 0.00 in0.0 mm 0.00 in0.0 mm 0.00 in0.0 mm
05:15 AM 8.0°F-13.3°C -12.3°F-24.6°C 38% 3.0 mph NW4.8 kmh NW 14.0 mph22.5 kmh 211.17 in7151.0 mb 0.00 in0.0 mm 0.00 in0.0 mm 0.00 in0.0 mm
05:10 AM 8.0°F-13.3°C -12.3°F-24.6°C 38% 3.0 mph NW4.8 kmh NW 14.0 mph22.5 kmh 211.17 in7151.0 mb 0.00 in0.0 mm 0.00 in0.0 mm 0.00 in0.0 mm
05:05 AM 8.0°F-13.3°C -12.3°F-24.6°C 38% 6.0 mph NW9.7 kmh NW 14.0 mph22.5 kmh 211.17 in7151.0 mb 0.00 in0.0 mm 0.00 in0.0 mm 0.00 in0.0 mm
05:00 AM 8.0°F-13.3°C -12.3°F-24.6°C 38% 6.0 mph NW9.7 kmh NW 14.0 mph22.5 kmh 211.17 in7151.0 mb 0.00 in0.0 mm 0.00 in0.0 mm 0.00 in0.0 mm
04:55 AM 8.0°F-13.3°C -12.3°F-24.6°C 38% 4.0 mph NW6.4 kmh NW 14.0 mph22.5 kmh 211.16 in7150.7 mb 0.00 in0.0 mm 0.00 in0.0 mm 0.00 in0.0 mm
04:50 AM 8.0°F-13.3°C -12.3°F-24.6°C 38% 2.0 mph NW3.2 kmh NW 14.0 mph22.5 kmh 211.16 in7150.7 mb 0.00 in0.0 mm 0.00 in0.0 mm 0.00 in0.0 mm
04:45 AM 8.0°F-13.3°C -12.3°F-24.6°C 38% 2.0 mph N3.2 kmh N 14.0 mph22.5 kmh 211.16 in7150.7 mb 0.00 in0.0 mm 0.00 in0.0 mm 0.00 in0.0 mm
04:40 AM 8.0°F-13.3°C -12.3°F-24.6°C 38% 5.0 mph WNW8.0 kmh WNW 14.0 mph22.5 kmh 211.16 in7150.7 mb 0.00 in0.0 mm 0.00 in0.0 mm 0.00 in0.0 mm
04:35 AM 8.0°F-13.3°C -12.3°F-24.6°C 38% 5.0 mph NW8.0 kmh NW 14.0 mph22.5 kmh 211.16 in7150.7 mb 0.00 in0.0 mm 0.00 in0.0 mm 0.00 in0.0 mm
04:30 AM 9.0°F-12.8°C -11.4°F-24.1°C 38% 2.0 mph NW3.2 kmh NW 14.0 mph22.5 kmh 211.16 in7150.7 mb 0.00 in0.0 mm 0.00 in0.0 mm 0.00 in0.0 mm
04:25 AM 9.0°F-12.8°C -11.4°F-24.1°C 38% 2.0 mph NW3.2 kmh NW 14.0 mph22.5 kmh 211.16 in7150.7 mb 0.00 in0.0 mm 0.00 in0.0 mm 0.00 in0.0 mm
04:20 AM 9.0°F-12.8°C -11.4°F-24.1°C 38% 5.0 mph NNW8.0 kmh NNW 14.0 mph22.5 kmh 211.16 in7150.7 mb 0.00 in0.0 mm 0.00 in0.0 mm 0.00 in0.0 mm
04:15 AM 9.0°F-12.8°C -11.4°F-24.1°C 38% 4.0 mph N6.4 kmh N 14.0 mph22.5 kmh 211.16 in7150.7 mb 0.00 in0.0 mm 0.00 in0.0 mm 0.00 in0.0 mm
04:10 AM 9.0°F-12.8°C -11.4°F-24.1°C 38% 5.0 mph NNW8.0 kmh NNW 14.0 mph22.5 kmh 211.16 in7150.7 mb 0.00 in0.0 mm 0.00 in0.0 mm 0.00 in0.0 mm
04:05 AM 9.0°F-12.8°C -11.4°F-24.1°C 38% 4.0 mph NNW6.4 kmh NNW 14.0 mph22.5 kmh 211.16 in7150.7 mb 0.00 in0.0 mm 0.00 in0.0 mm 0.00 in0.0 mm
04:00 AM 9.0°F-12.8°C -11.4°F-24.1°C 38% 6.0 mph NNW9.7 kmh NNW 14.0 mph22.5 kmh 211.16 in7150.7 mb 0.00 in0.0 mm 0.00 in0.0 mm 0.00 in0.0 mm
03:55 AM 9.0°F-12.8°C -11.4°F-24.1°C 38% 7.0 mph NNW11.3 kmh NNW 14.0 mph22.5 kmh 211.17 in7151.0 mb 0.00 in0.0 mm 0.00 in0.0 mm 0.00 in0.0 mm
03:50 AM 9.0°F-12.8°C -11.4°F-24.1°C 38% 2.0 mph N3.2 kmh N 14.0 mph22.5 kmh 211.17 in7151.0 mb 0.00 in0.0 mm 0.00 in0.0 mm 0.00 in0.0 mm
03:45 AM 9.0°F-12.8°C -11.4°F-24.1°C 38% 4.0 mph NNW6.4 kmh NNW 14.0 mph22.5 kmh 211.17 in7151.0 mb 0.00 in0.0 mm 0.00 in0.0 mm 0.00 in0.0 mm
03:40 AM 9.0°F-12.8°C -11.4°F-24.1°C 38% 3.0 mph NNW4.8 kmh NNW 14.0 mph22.5 kmh 211.17 in7151.0 mb 0.00 in0.0 mm 0.00 in0.0 mm 0.00 in0.0 mm
03:35 AM 9.0°F-12.8°C -11.4°F-24.1°C 38% 1.0 mph NW1.6 kmh NW 14.0 mph22.5 kmh 211.17 in7151.0 mb 0.00 in0.0 mm 0.00 in0.0 mm 0.00 in0.0 mm
03:30 AM 9.0°F-12.8°C -11.4°F-24.1°C 38% 2.0 mph NNW3.2 kmh NNW 14.0 mph22.5 kmh 211.17 in7151.0 mb 0.00 in0.0 mm 0.00 in0.0 mm 0.00 in0.0 mm
03:25 AM 9.0°F-12.8°C -11.4°F-24.1°C 38% 6.0 mph WNW9.7 kmh WNW 14.0 mph22.5 kmh 211.17 in7151.0 mb 0.00 in0.0 mm 0.00 in0.0 mm 0.00 in0.0 mm
03:20 AM 10.0°F-12.2°C -10.0°F-23.3°C 39% 8.0 mph NNW12.9 kmh NNW 14.0 mph22.5 kmh 211.17 in7151.0 mb 0.00 in0.0 mm 0.00 in0.0 mm 0.00 in0.0 mm
03:15 AM 10.0°F-12.2°C -10.0°F-23.3°C 39% 3.0 mph NNW4.8 kmh NNW 14.0 mph22.5 kmh 211.17 in7151.0 mb 0.00 in0.0 mm 0.00 in0.0 mm 0.00 in0.0 mm
03:10 AM 10.0°F-12.2°C -10.0°F-23.3°C 39% 6.0 mph NW9.7 kmh NW 14.0 mph22.5 kmh 211.17 in7151.0 mb 0.00 in0.0 mm 0.00 in0.0 mm 0.00 in0.0 mm
03:05 AM 10.0°F-12.2°C -10.0°F-23.3°C 39% 2.0 mph NW3.2 kmh NW 14.0 mph22.5 kmh 211.18 in7151.4 mb 0.00 in0.0 mm 0.00 in0.0 mm 0.00 in0.0 mm
03:00 AM 10.0°F-12.2°C -10.0°F-23.3°C 39% 6.0 mph WNW9.7 kmh WNW 14.0 mph22.5 kmh 211.18 in7151.4 mb 0.00 in0.0 mm 0.00 in0.0 mm 0.00 in0.0 mm
02:55 AM 10.0°F-12.2°C -10.0°F-23.3°C 39% 6.0 mph N9.7 kmh N 14.0 mph22.5 kmh 211.18 in7151.4 mb 0.00 in0.0 mm 0.00 in0.0 mm 0.00 in0.0 mm
02:50 AM 10.0°F-12.2°C -10.0°F-23.3°C 39% 5.0 mph NW8.0 kmh NW 14.0 mph22.5 kmh 211.18 in7151.4 mb 0.00 in0.0 mm 0.00 in0.0 mm 0.00 in0.0 mm
02:45 AM 10.0°F-12.2°C -10.0°F-23.3°C 39% 6.0 mph N9.7 kmh N 14.0 mph22.5 kmh 211.17 in7151.0 mb 0.00 in0.0 mm 0.00 in0.0 mm 0.00 in0.0 mm
02:40 AM 10.0°F-12.2°C -10.0°F-23.3°C 39% 5.0 mph N8.0 kmh N 14.0 mph22.5 kmh 211.17 in7151.0 mb 0.00 in0.0 mm 0.00 in0.0 mm 0.00 in0.0 mm
02:35 AM 11.0°F-11.7°C -9.1°F-22.8°C 39% 3.0 mph N4.8 kmh N 14.0 mph22.5 kmh 211.18 in7151.4 mb 0.00 in0.0 mm 0.00 in0.0 mm 0.00 in0.0 mm
02:30 AM 11.0°F-11.7°C -9.1°F-22.8°C 39% 6.0 mph NNW9.7 kmh NNW 14.0 mph22.5 kmh 211.18 in7151.4 mb 0.00 in0.0 mm 0.00 in0.0 mm 0.00 in0.0 mm
02:25 AM 11.0°F-11.7°C -9.1°F-22.8°C 39% 6.0 mph N9.7 kmh N 14.0 mph22.5 kmh 211.18 in7151.4 mb 0.00 in0.0 mm 0.00 in0.0 mm 0.00 in0.0 mm
02:20 AM 11.0°F-11.7°C -9.1°F-22.8°C 39% 7.0 mph NW11.3 kmh NW 14.0 mph22.5 kmh 211.18 in7151.4 mb 0.00 in0.0 mm 0.00 in0.0 mm 0.00 in0.0 mm
02:15 AM 11.0°F-11.7°C -9.1°F-22.8°C 39% 7.0 mph NW11.3 kmh NW 14.0 mph22.5 kmh 211.18 in7151.4 mb 0.00 in0.0 mm 0.00 in0.0 mm 0.00 in0.0 mm
02:10 AM 11.0°F-11.7°C -9.1°F-22.8°C 39% 9.0 mph NW14.5 kmh NW 14.0 mph22.5 kmh 211.18 in7151.4 mb 0.00 in0.0 mm 0.00 in0.0 mm 0.00 in0.0 mm
02:05 AM 11.0°F-11.7°C -9.1°F-22.8°C 39% 9.0 mph NW14.5 kmh NW 14.0 mph22.5 kmh 211.18 in7151.4 mb 0.00 in0.0 mm 0.00 in0.0 mm 0.00 in0.0 mm
02:00 AM 11.0°F-11.7°C -9.1°F-22.8°C 39% 5.0 mph NNW8.0 kmh NNW 14.0 mph22.5 kmh 211.18 in7151.4 mb 0.00 in0.0 mm 0.00 in0.0 mm 0.00 in0.0 mm
01:55 AM 11.0°F-11.7°C -9.1°F-22.8°C 39% 9.0 mph N14.5 kmh N 14.0 mph22.5 kmh 211.18 in7151.4 mb 0.00 in0.0 mm 0.00 in0.0 mm 0.00 in0.0 mm
01:50 AM 11.0°F-11.7°C -9.1°F-22.8°C 39% 8.0 mph N12.9 kmh N 14.0 mph22.5 kmh 211.18 in7151.4 mb 0.00 in0.0 mm 0.00 in0.0 mm 0.00 in0.0 mm
01:45 AM 11.0°F-11.7°C -9.1°F-22.8°C 39% 6.0 mph N9.7 kmh N 14.0 mph22.5 kmh 211.18 in7151.4 mb 0.00 in0.0 mm 0.00 in0.0 mm 0.00 in0.0 mm
01:40 AM 11.0°F-11.7°C -9.1°F-22.8°C 39% 7.0 mph NNW11.3 kmh NNW 14.0 mph22.5 kmh 211.18 in7151.4 mb 0.00 in0.0 mm 0.00 in0.0 mm 0.00 in0.0 mm
01:35 AM 11.0°F-11.7°C -9.1°F-22.8°C 39% 6.0 mph NNW9.7 kmh NNW 14.0 mph22.5 kmh 211.17 in7151.0 mb 0.00 in0.0 mm 0.00 in0.0 mm 0.00 in0.0 mm
01:30 AM 11.0°F-11.7°C -9.1°F-22.8°C 39% 8.0 mph NNE12.9 kmh NNE 12.0 mph19.3 kmh 211.17 in7151.0 mb 0.00 in0.0 mm 0.00 in0.0 mm 0.00 in0.0 mm
01:25 AM 11.0°F-11.7°C -9.1°F-22.8°C 39% 5.0 mph NW8.0 kmh NW 12.0 mph19.3 kmh 211.18 in7151.4 mb 0.00 in0.0 mm 0.00 in0.0 mm 0.00 in0.0 mm
01:20 AM 11.0°F-11.7°C -9.1°F-22.8°C 39% 4.0 mph WNW6.4 kmh WNW 12.0 mph19.3 kmh 211.18 in7151.4 mb 0.00 in0.0 mm 0.00 in0.0 mm 0.00 in0.0 mm
01:15 AM 11.0°F-11.7°C -9.1°F-22.8°C 39% 6.0 mph NW9.7 kmh NW 12.0 mph19.3 kmh 211.18 in7151.4 mb 0.00 in0.0 mm 0.00 in0.0 mm 0.00 in0.0 mm
01:10 AM 11.0°F-11.7°C -9.1°F-22.8°C 39% 3.0 mph WNW4.8 kmh WNW 12.0 mph19.3 kmh 211.18 in7151.4 mb 0.00 in0.0 mm 0.00 in0.0 mm 0.00 in0.0 mm
01:05 AM 11.0°F-11.7°C -9.1°F-22.8°C 39% 3.0 mph NW4.8 kmh NW 12.0 mph19.3 kmh 211.18 in7151.4 mb 0.00 in0.0 mm 0.00 in0.0 mm 0.00 in0.0 mm
01:00 AM 11.0°F-11.7°C -9.1°F-22.8°C 39% 6.0 mph NW9.7 kmh NW 12.0 mph19.3 kmh 211.18 in7151.4 mb 0.00 in0.0 mm 0.00 in0.0 mm 0.00 in0.0 mm
12:55 AM 11.0°F-11.7°C -9.1°F-22.8°C 39% 6.0 mph NNW9.7 kmh NNW 12.0 mph19.3 kmh 211.18 in7151.4 mb 0.00 in0.0 mm 0.00 in0.0 mm 0.00 in0.0 mm
12:50 AM 11.0°F-11.7°C -9.1°F-22.8°C 39% 5.0 mph NW8.0 kmh NW 12.0 mph19.3 kmh 211.18 in7151.4 mb 0.00 in0.0 mm 0.00 in0.0 mm 0.00 in0.0 mm
12:45 AM 11.0°F-11.7°C -9.1°F-22.8°C 39% 2.0 mph W3.2 kmh W 12.0 mph19.3 kmh 211.18 in7151.4 mb 0.00 in0.0 mm 0.00 in0.0 mm 0.00 in0.0 mm
12:40 AM 11.0°F-11.7°C -9.1°F-22.8°C 39% 4.0 mph WNW6.4 kmh WNW 12.0 mph19.3 kmh 211.18 in7151.4 mb 0.00 in0.0 mm 0.00 in0.0 mm 0.00 in0.0 mm
12:35 AM 11.0°F-11.7°C -9.1°F-22.8°C 39% 3.0 mph WNW4.8 kmh WNW 12.0 mph19.3 kmh 211.18 in7151.4 mb 0.00 in0.0 mm 0.00 in0.0 mm 0.00 in0.0 mm
12:30 AM 12.0°F-11.1°C -8.2°F-22.3°C 39% 6.0 mph NW9.7 kmh NW 12.0 mph19.3 kmh 211.18 in7151.4 mb 0.00 in0.0 mm 0.00 in0.0 mm 0.00 in0.0 mm
12:25 AM 12.0°F-11.1°C -8.2°F-22.3°C 39% 7.0 mph NW11.3 kmh NW 12.0 mph19.3 kmh 211.18 in7151.4 mb 0.00 in0.0 mm 0.00 in0.0 mm 0.00 in0.0 mm
12:20 AM 12.0°F-11.1°C -8.2°F-22.3°C 39% 3.0 mph NW4.8 kmh NW 12.0 mph19.3 kmh 211.18 in7151.4 mb 0.00 in0.0 mm 0.00 in0.0 mm 0.00 in0.0 mm
12:15 AM 12.0°F-11.1°C -8.2°F-22.3°C 39% 7.0 mph WNW11.3 kmh WNW 10.0 mph16.1 kmh 211.19 in7151.7 mb 0.00 in0.0 mm 0.00 in0.0 mm 0.00 in0.0 mm
12:10 AM 12.0°F-11.1°C -8.2°F-22.3°C 39% 5.0 mph NW8.0 kmh NW 10.0 mph16.1 kmh 211.19 in7151.7 mb 0.00 in0.0 mm 0.00 in0.0 mm 0.00 in0.0 mm
12:05 AM 12.0°F-11.1°C -8.2°F-22.3°C 39% 7.0 mph NNW11.3 kmh NNW 10.0 mph16.1 kmh 211.19 in7151.7 mb 0.00 in0.0 mm 0.00 in0.0 mm 0.00 in0.0 mm
12:00 AM 12.0°F-11.1°C -8.2°F-22.3°C 39% 6.0 mph NW9.7 kmh NW 6.0 mph9.7 kmh 211.19 in7151.7 mb 0.00 in0.0 mm 0.00 in0.0 mm 0.00 in0.0 mm